Harrisburg Junction, Utah
Current Conditions -  °F | °C
As of 8:55 AM on Friday 31 Oct 2014 (Local Time) from KSGU Reporting Station
Clear Clear  
Wind Chill: 55°   Ceiling: Unl
Heat Index: 55°   Visibility: 10mi
Dew Point: 25°   Wind: 3mph
Humidity: 31%   Direction: 270°W
Pressure: 30.03"   Gusts: NA
Location:  37.1317°N, 113.795°W
Report Text: KSGU 311455Z AUTO 27003KT 10SM CLR 13/M04 A3003 RMK AO1 54000
Loading
Personal Weather Stations






























Interactive Weather Map
Tropical Storm Tracking
New forecast layout! Learn more

10-Day Weather Forecast

Advertisements
Track Severe Weather on mobile